createdAt,value
2023-11-07T00:02:42.818Z,74.00
2023-11-07T00:07:48.339Z,74.61
2023-11-07T00:12:52.402Z,75.37
2023-11-07T00:17:56.766Z,74.24
2023-11-07T00:23:02.011Z,74.13
2023-11-07T00:28:06.552Z,72.95
2023-11-07T00:33:10.518Z,74.72
2023-11-07T00:38:15.970Z,74.11
2023-11-07T00:43:19.964Z,74.70
2023-11-07T00:48:23.963Z,76.32
2023-11-07T00:53:29.353Z,75.61
2023-11-07T00:58:33.266Z,76.03
2023-11-07T01:03:37.526Z,75.19
2023-11-07T01:08:42.885Z,75.39
2023-11-07T01:13:46.963Z,75.53
2023-11-07T01:18:51.012Z,75.28
2023-11-07T01:23:56.450Z,75.20
2023-11-07T01:29:00.762Z,75.37
2023-11-07T01:34:04.846Z,75.61
2023-11-07T01:39:11.177Z,76.06
2023-11-07T01:44:15.100Z,75.93
2023-11-07T01:49:19.201Z,75.56
2023-11-07T01:54:26.461Z,75.32
2023-11-07T01:59:30.975Z,76.20
2023-11-07T02:04:35.721Z,75.03
2023-11-07T02:09:41.329Z,73.82
2023-11-07T02:14:45.840Z,75.15
2023-11-07T02:19:49.891Z,74.63
2023-11-07T02:24:55.107Z,75.30
2023-11-07T02:29:58.965Z,76.82
2023-11-07T02:35:02.950Z,76.89
2023-11-07T02:40:11.257Z,76.21
2023-11-07T02:45:15.885Z,76.17
2023-11-07T02:50:20.282Z,75.96
2023-11-07T02:55:25.685Z,76.69
2023-11-07T03:00:31.978Z,74.66
2023-11-07T03:05:36.983Z,76.08
2023-11-07T03:10:42.942Z,75.80
2023-11-07T03:15:46.800Z,75.65
2023-11-07T03:20:50.639Z,76.25
2023-11-07T03:25:56.317Z,76.24
2023-11-07T03:31:00.330Z,78.35
2023-11-07T03:36:04.636Z,75.46
2023-11-07T03:41:10.165Z,76.52
2023-11-07T03:46:14.760Z,77.27
2023-11-07T03:51:18.802Z,76.33
2023-11-07T03:56:24.576Z,77.58
2023-11-07T04:01:36.678Z,77.30
2023-11-07T04:06:40.610Z,77.68
2023-11-07T04:11:46.072Z,77.33
2023-11-07T04:16:50.262Z,77.99
2023-11-07T04:21:56.043Z,77.82
2023-11-07T04:27:01.346Z,78.08
2023-11-07T04:32:05.815Z,78.57
2023-11-07T04:37:10.032Z,78.65
2023-11-07T04:42:15.571Z,78.53
2023-11-07T04:47:20.388Z,78.84
2023-11-07T04:52:24.859Z,79.36
2023-11-07T04:57:30.641Z,79.42
2023-11-07T05:02:34.757Z,79.48
2023-11-07T05:07:38.956Z,78.16
2023-11-07T05:12:44.299Z,78.51
2023-11-07T05:17:49.415Z,80.57
2023-11-07T05:22:53.503Z,81.23
2023-11-07T05:27:58.766Z,80.99
2023-11-07T05:33:03.076Z,81.64
2023-11-07T05:38:07.437Z,81.23
2023-11-07T05:43:12.933Z,80.25
2023-11-07T05:48:18.054Z,78.71
2023-11-07T05:53:22.796Z,77.33
2023-11-07T05:58:28.389Z,75.27
2023-11-07T06:03:33.133Z,73.69
2023-11-07T06:08:37.610Z,72.63
2023-11-07T06:13:43.340Z,71.62
2023-11-07T06:18:47.268Z,67.59
2023-11-07T06:23:51.217Z,64.09
2023-11-07T06:28:56.445Z,61.52
2023-11-07T06:34:00.971Z,59.82
2023-11-07T06:39:09.825Z,58.65
2023-11-07T06:44:15.880Z,57.72
2023-11-07T06:49:20.142Z,54.35
2023-11-07T06:54:25.745Z,53.83
2023-11-07T06:59:32.946Z,52.82
2023-11-07T07:04:36.992Z,52.62
2023-11-07T07:09:44.641Z,51.13
2023-11-07T07:14:50.151Z,50.70
2023-11-07T07:19:55.131Z,49.57
2023-11-07T07:25:00.992Z,48.78
2023-11-07T07:30:10.532Z,46.87
2023-11-07T07:35:16.614Z,45.91
2023-11-07T07:40:25.617Z,44.05
2023-11-07T07:45:32.813Z,44.81
2023-11-07T07:50:43.671Z,46.25
2023-11-07T07:55:48.020Z,47.86
2023-11-07T08:00:54.744Z,47.69
2023-11-07T08:05:59.292Z,48.06
2023-11-07T08:11:03.300Z,48.20
2023-11-07T08:16:11.950Z,47.79
2023-11-07T08:21:16.618Z,46.92
2023-11-07T08:26:21.035Z,44.95
2023-11-07T08:31:26.346Z,43.65
2023-11-07T08:36:31.435Z,41.64
2023-11-07T08:41:35.515Z,39.72
2023-11-07T08:46:41.091Z,37.37
2023-11-07T08:51:45.209Z,36.88
2023-11-07T08:56:50.808Z,36.48
2023-11-07T09:01:56.623Z,35.90
2023-11-07T09:07:02.257Z,34.63
2023-11-07T09:12:06.627Z,33.67
2023-11-07T09:17:13.650Z,32.96
2023-11-07T09:22:17.476Z,32.61
2023-11-07T09:27:21.452Z,31.38
2023-11-07T09:32:27.537Z,30.43
2023-11-07T09:37:31.687Z,29.66
2023-11-07T09:42:35.982Z,28.65
2023-11-07T09:47:41.332Z,26.90
2023-11-07T09:52:47.185Z,27.35
2023-11-07T09:58:08.698Z,25.97
2023-11-07T10:03:19.722Z,25.22
2023-11-07T10:08:26.414Z,26.96
2023-11-07T10:13:30.628Z,26.78
2023-11-07T10:18:47.861Z,28.43
2023-11-07T10:23:56.141Z,28.65
2023-11-07T10:29:17.956Z,29.92
2023-11-07T10:34:27.300Z,29.78
2023-11-07T10:39:31.985Z,29.79
2023-11-07T10:44:36.276Z,29.64
2023-11-07T10:49:46.274Z,29.72
2023-11-07T10:54:51.236Z,30.03
2023-11-07T11:00:06.682Z,31.06
2023-11-07T11:05:17.036Z,29.37
2023-11-07T11:10:28.789Z,29.51
2023-11-07T11:15:35.985Z,30.14
2023-11-07T11:20:47.316Z,29.99
2023-11-07T11:26:08.310Z,29.45
2023-11-07T11:31:16.047Z,29.88
2023-11-07T11:36:38.816Z,29.97
2023-11-07T11:41:59.041Z,29.99
2023-11-07T11:47:03.664Z,30.37
2023-11-07T11:52:36.121Z,28.95
2023-11-07T11:58:18.177Z,30.28
2023-11-07T12:03:22.293Z,30.77
2023-11-07T12:08:39.498Z,30.65
2023-11-07T12:13:43.919Z,30.66
2023-11-07T12:18:51.495Z,31.58
2023-11-07T12:24:00.377Z,32.76
2023-11-07T12:29:04.181Z,33.94
2023-11-07T12:34:11.182Z,34.41
2023-11-07T12:44:24.994Z,34.90
2023-11-07T12:49:31.139Z,35.70
2023-11-07T12:54:36.766Z,35.27
2023-11-07T12:59:41.009Z,35.45
2023-11-07T13:04:51.225Z,36.96
2023-11-07T13:09:56.523Z,38.16
2023-11-07T13:15:00.603Z,37.39
2023-11-07T13:20:09.715Z,37.62
2023-11-07T13:25:15.176Z,35.86
2023-11-07T13:30:20.285Z,35.84
2023-11-07T13:35:24.231Z,35.71
2023-11-07T13:40:29.579Z,34.94
2023-11-07T13:45:35.968Z,34.76
2023-11-07T13:50:42.089Z,35.20
2023-11-07T13:55:48.135Z,39.62
2023-11-07T14:00:52.702Z,41.09
2023-11-07T14:05:56.735Z,41.64
2023-11-07T14:11:02.965Z,42.79
2023-11-07T14:16:08.157Z,44.27
2023-11-07T14:21:13.999Z,44.21
2023-11-07T14:26:19.425Z,46.98
2023-11-07T14:31:23.407Z,47.00
2023-11-07T14:36:27.523Z,47.51
2023-11-07T14:41:33.082Z,48.57
2023-11-07T14:46:38.070Z,48.65
2023-11-07T14:51:42.551Z,50.19
2023-11-07T14:56:57.827Z,50.79
2023-11-07T15:02:14.557Z,53.21
2023-11-07T15:07:25.934Z,54.93
2023-11-07T15:12:33.704Z,54.59
2023-11-07T15:17:38.930Z,56.60
2023-11-07T15:22:44.094Z,58.58
2023-11-07T15:27:49.677Z,60.04
2023-11-07T15:32:54.514Z,61.53
2023-11-07T15:38:01.660Z,62.73
2023-11-07T15:43:07.047Z,63.88
2023-11-07T15:48:12.502Z,63.31
2023-11-07T15:53:17.237Z,62.35
2023-11-07T15:58:22.780Z,62.76
2023-11-07T16:03:27.097Z,62.75
2023-11-07T16:08:31.418Z,63.51
2023-11-07T16:13:36.836Z,64.10
2023-11-07T16:18:41.105Z,65.28
2023-11-07T16:23:45.488Z,66.68
2023-11-07T16:28:53.143Z,65.34
2023-11-07T16:33:58.646Z,67.39
2023-11-07T16:39:03.466Z,68.71
2023-11-07T16:44:09.445Z,67.35
2023-11-07T16:49:14.599Z,69.08
2023-11-07T16:54:18.664Z,68.35
2023-11-07T16:59:25.152Z,70.03
2023-11-07T17:04:29.512Z,70.70
2023-11-07T17:09:34.237Z,70.58
2023-11-07T17:14:40.581Z,70.75
2023-11-07T17:19:45.121Z,70.66
2023-11-07T17:24:51.513Z,72.12
2023-11-07T17:29:56.986Z,71.66
2023-11-07T17:35:05.164Z,71.59
2023-11-07T17:40:11.130Z,72.27
2023-11-07T17:45:16.603Z,73.50
2023-11-07T17:50:20.779Z,72.89
2023-11-07T17:55:25.083Z,72.45
2023-11-07T18:00:30.583Z,72.60
2023-11-07T18:05:34.860Z,72.12
2023-11-07T18:10:39.004Z,73.32
2023-11-07T18:15:46.565Z,73.20
2023-11-07T18:20:51.358Z,73.13
2023-11-07T18:25:55.419Z,74.59
2023-11-07T18:31:01.169Z,74.47
2023-11-07T18:36:05.888Z,73.08
2023-11-07T18:41:10.140Z,73.49
2023-11-07T18:46:16.846Z,75.44
2023-11-07T18:51:23.443Z,75.10
2023-11-07T18:56:27.468Z,74.84
2023-11-07T19:01:32.766Z,74.69
2023-11-07T19:06:37.815Z,75.75
2023-11-07T19:11:43.996Z,75.98
2023-11-07T19:16:51.205Z,75.65
2023-11-07T19:21:56.858Z,75.93
2023-11-07T19:27:01.347Z,77.36
2023-11-07T19:32:07.838Z,77.22
2023-11-07T19:37:12.903Z,78.95
2023-11-07T19:42:16.952Z,78.13
2023-11-07T19:47:22.489Z,77.08
2023-11-07T19:52:26.688Z,77.47
2023-11-07T19:57:31.602Z,77.19
2023-11-07T20:02:38.279Z,77.10
2023-11-07T20:07:51.350Z,78.26
2023-11-07T20:13:01.404Z,77.18
2023-11-07T20:18:07.829Z,77.81
2023-11-07T20:23:15.042Z,78.28
2023-11-07T20:28:19.352Z,77.23
2023-11-07T20:33:31.373Z,77.34
2023-11-07T20:38:41.800Z,78.68
2023-11-07T20:43:47.480Z,79.01
2023-11-07T20:48:53.200Z,78.51
2023-11-07T20:53:57.099Z,78.39
2023-11-07T20:59:02.360Z,79.60
2023-11-07T21:04:08.579Z,79.99
2023-11-07T21:09:15.712Z,80.25
2023-11-07T21:14:21.332Z,80.85
2023-11-07T21:19:27.496Z,78.07
2023-11-07T21:24:31.485Z,80.25
2023-11-07T21:29:36.800Z,80.96
2023-11-07T21:34:44.672Z,80.51
2023-11-07T21:39:48.726Z,80.29
2023-11-07T21:44:52.618Z,81.21
2023-11-07T21:49:58.147Z,80.37
2023-11-07T21:55:03.101Z,79.96
2023-11-07T22:00:09.303Z,79.96
2023-11-07T22:05:21.857Z,80.92
2023-11-07T22:10:26.119Z,79.84
2023-11-07T22:15:30.110Z,80.45
2023-11-07T22:20:35.602Z,80.39
2023-11-07T22:25:40.206Z,80.31
2023-11-07T22:30:44.198Z,81.69
2023-11-07T22:35:53.017Z,82.36
2023-11-07T22:40:57.210Z,82.76
2023-11-07T22:46:01.106Z,82.40
2023-11-07T22:51:06.625Z,83.79
2023-11-07T22:56:10.616Z,82.08
2023-11-07T23:01:15.189Z,82.58
2023-11-07T23:06:20.568Z,82.05
2023-11-07T23:11:25.472Z,81.19
2023-11-07T23:16:29.948Z,81.20
2023-11-07T23:21:35.761Z,81.73
2023-11-07T23:26:47.953Z,83.07
2023-11-07T23:31:53.965Z,82.17
2023-11-07T23:36:59.413Z,80.84
2023-11-07T23:42:03.356Z,81.90
2023-11-07T23:47:08.292Z,81.83
2023-11-07T23:52:14.151Z,81.99
2023-11-07T23:57:18.116Z,82.79
